sensor_id;sensor_type;location;lat;lon;timestamp;pressure;altitude;pressure_sealevel;temperature;humidity
15229;BME280;7717;47.792;12.076;2024-01-30T00:00:11;97606.47;;;-4.26;100.00
15229;BME280;7717;47.792;12.076;2024-01-30T00:02:37;97548.06;;;-4.55;100.00
15229;BME280;7717;47.792;12.076;2024-01-30T00:05:02;97578.84;;;-4.51;100.00
15229;BME280;7717;47.792;12.076;2024-01-30T00:07:29;97603.16;;;-4.31;100.00
15229;BME280;7717;47.792;12.076;2024-01-30T00:09:54;97602.88;;;-4.22;100.00
15229;BME280;7717;47.792;12.076;2024-01-30T00:12:20;97602.44;;;-4.36;100.00
15229;BME280;7717;47.792;12.076;2024-01-30T00:14:45;97578.94;;;-4.54;100.00
15229;BME280;7717;47.792;12.076;2024-01-30T00:17:11;97604.66;;;-4.24;100.00
15229;BME280;7717;47.792;12.076;2024-01-30T00:19:37;97599.97;;;-4.39;100.00
15229;BME280;7717;47.792;12.076;2024-01-30T00:22:03;97569.78;;;-4.64;100.00
15229;BME280;7717;47.792;12.076;2024-01-30T00:24:28;97588.34;;;-4.53;100.00
15229;BME280;7717;47.792;12.076;2024-01-30T00:26:54;97612.31;;;-4.51;100.00
15229;BME280;7717;47.792;12.076;2024-01-30T00:29:19;97611.78;;;-4.32;100.00
15229;BME280;7717;47.792;12.076;2024-01-30T00:31:45;97618.41;;;-4.25;100.00
15229;BME280;7717;47.792;12.076;2024-01-30T00:34:11;97606.47;;;-4.26;100.00
15229;BME280;7717;47.792;12.076;2024-01-30T00:36:37;97609.53;;;-4.15;100.00
15229;BME280;7717;47.792;12.076;2024-01-30T00:39:03;97610.03;;;-4.32;100.00
15229;BME280;7717;47.792;12.076;2024-01-30T00:41:32;97614.97;;;-4.24;100.00
15229;BME280;7717;47.792;12.076;2024-01-30T00:43:58;97602.72;;;-4.18;100.00
15229;BME280;7717;47.792;12.076;2024-01-30T00:46:23;97597.06;;;-4.29;100.00
15229;BME280;7717;47.792;12.076;2024-01-30T00:48:48;97564.63;;;-4.64;100.00
15229;BME280;7717;47.792;12.076;2024-01-30T00:51:14;97606.75;;;-4.37;100.00
15229;BME280;7717;47.792;12.076;2024-01-30T00:53:40;97601.91;;;-4.46;100.00
15229;BME280;7717;47.792;12.076;2024-01-30T00:56:06;97600.06;;;-4.43;100.00
15229;BME280;7717;47.792;12.076;2024-01-30T00:58:32;97606.13;;;-4.45;100.00
15229;BME280;7717;47.792;12.076;2024-01-30T01:01:01;97610.81;;;-4.58;100.00
15229;BME280;7717;47.792;12.076;2024-01-30T01:03:27;97612.31;;;-4.51;100.00
15229;BME280;7717;47.792;12.076;2024-01-30T01:05:52;97617.25;;;-4.43;100.00
15229;BME280;7717;47.792;12.076;2024-01-30T01:08:18;97597.66;;;-4.49;100.00
15229;BME280;7717;47.792;12.076;2024-01-30T01:10:43;97606.78;;;-4.38;100.00
15229;BME280;7717;47.792;12.076;2024-01-30T01:13:08;97606.72;;;-4.35;100.00
15229;BME280;7717;47.792;12.076;2024-01-30T01:15:37;97605.00;;;-4.35;100.00
15229;BME280;7717;47.792;12.076;2024-01-30T01:18:04;97602.91;;;-4.52;100.00
15229;BME280;7717;47.792;12.076;2024-01-30T01:20:29;97604.25;;;-4.68;100.00
15229;BME280;7717;47.792;12.076;2024-01-30T01:22:55;97613.84;;;-4.73;100.00
15229;BME280;7717;47.792;12.076;2024-01-30T01:25:20;97527.31;;;-5.08;100.00
15229;BME280;7717;47.792;12.076;2024-01-30T01:27:45;97591.22;;;-4.63;100.00
15229;BME280;7717;47.792;12.076;2024-01-30T01:30:16;97583.59;;;-4.66;100.00
15229;BME280;7717;47.792;12.076;2024-01-30T01:32:49;97595.00;;;-4.46;100.00
15229;BME280;7717;47.792;12.076;2024-01-30T01:35:26;97546.16;;;-4.78;100.00
15229;BME280;7717;47.792;12.076;2024-01-30T01:37:58;97601.16;;;-4.51;100.00
15229;BME280;7717;47.792;12.076;2024-01-30T01:40:26;97602.59;;;-4.41;100.00
15229;BME280;7717;47.792;12.076;2024-01-30T01:42:53;97577.94;;;-4.50;100.00
15229;BME280;7717;47.792;12.076;2024-01-30T01:45:19;97599.78;;;-4.33;100.00
15229;BME280;7717;47.792;12.076;2024-01-30T01:47:46;97595.50;;;-4.33;100.00
15229;BME280;7717;47.792;12.076;2024-01-30T01:50:13;97598.50;;;-4.48;100.00
15229;BME280;7717;47.792;12.076;2024-01-30T01:52:41;97588.09;;;-4.45;100.00
15229;BME280;7717;47.792;12.076;2024-01-30T01:55:07;97555.31;;;-4.68;100.00
15229;BME280;7717;47.792;12.076;2024-01-30T01:57:33;97594.56;;;-4.32;100.00
15229;BME280;7717;47.792;12.076;2024-01-30T02:00:00;97595.41;;;-4.31;100.00
15229;BME280;7717;47.792;12.076;2024-01-30T02:02:26;97595.13;;;-4.21;100.00
15229;BME280;7717;47.792;12.076;2024-01-30T02:04:53;97582.34;;;-4.25;100.00
15229;BME280;7717;47.792;12.076;2024-01-30T02:07:20;97586.63;;;-4.24;100.00
15229;BME280;7717;47.792;12.076;2024-01-30T02:09:47;97593.41;;;-4.22;100.00
15229;BME280;7717;47.792;12.076;2024-01-30T02:12:13;97575.75;;;-4.34;100.00
15229;BME280;7717;47.792;12.076;2024-01-30T02:14:46;97598.63;;;-4.23;100.00
15229;BME280;7717;47.792;12.076;2024-01-30T02:17:12;97598.06;;;-4.33;100.00
15229;BME280;7717;47.792;12.076;2024-01-30T02:19:39;97591.72;;;-4.51;100.00
15229;BME280;7717;47.792;12.076;2024-01-30T02:22:05;97597.59;;;-4.46;100.00
15229;BME280;7717;47.792;12.076;2024-01-30T02:24:31;97599.41;;;-4.21;100.00
15229;BME280;7717;47.792;12.076;2024-01-30T02:26:56;97597.06;;;-4.01;100.00
15229;BME280;7717;47.792;12.076;2024-01-30T02:29:21;97600.81;;;-4.11;100.00
15229;BME280;7717;47.792;12.076;2024-01-30T02:31:47;97590.47;;;-4.10;100.00
15229;BME280;7717;47.792;12.076;2024-01-30T02:34:13;97598.72;;;-4.26;100.00
15229;BME280;7717;47.792;12.076;2024-01-30T02:36:42;97606.75;;;-4.37;100.00
15229;BME280;7717;47.792;12.076;2024-01-30T02:39:08;97606.38;;;-4.25;100.00
15229;BME280;7717;47.792;12.076;2024-01-30T02:41:33;97608.31;;;-4.31;100.00
15229;BME280;7717;47.792;12.076;2024-01-30T02:43:59;97594.53;;;-4.30;100.00
15229;BME280;7717;47.792;12.076;2024-01-30T02:46:24;97605.06;;;-4.38;100.00
15229;BME280;7717;47.792;12.076;2024-01-30T02:48:50;97564.91;;;-4.73;100.00
15229;BME280;7717;47.792;12.076;2024-01-30T02:51:16;97606.28;;;-4.79;100.00
15229;BME280;7717;47.792;12.076;2024-01-30T02:53:42;97595.81;;;-5.04;100.00
15229;BME280;7717;47.792;12.076;2024-01-30T02:56:07;97597.84;;;-5.15;100.00
15229;BME280;7717;47.792;12.076;2024-01-30T02:58:35;97579.19;;;-5.23;100.00
15229;BME280;7717;47.792;12.076;2024-01-30T03:01:01;97591.41;;;-4.99;100.00
15229;BME280;7717;47.792;12.076;2024-01-30T03:03:27;97596.91;;;-4.82;100.00
15229;BME280;7717;47.792;12.076;2024-01-30T03:05:52;97593.63;;;-4.87;100.00
15229;BME280;7717;47.792;12.076;2024-01-30T03:08:18;97556.66;;;-5.15;100.00
15229;BME280;7717;47.792;12.076;2024-01-30T03:10:43;97580.25;;;-4.99;100.00
15229;BME280;7717;47.792;12.076;2024-01-30T03:13:09;97572.94;;;-5.14;100.00
15229;BME280;7717;47.792;12.076;2024-01-30T03:15:34;97599.31;;;-5.06;100.00
15229;BME280;7717;47.792;12.076;2024-01-30T03:17:59;97592.72;;;-5.16;100.00
15229;BME280;7717;47.792;12.076;2024-01-30T03:20:25;97562.72;;;-5.17;100.00
15229;BME280;7717;47.792;12.076;2024-01-30T03:22:50;97580.25;;;-4.99;100.00
15229;BME280;7717;47.792;12.076;2024-01-30T03:25:16;97589.91;;;-5.07;100.00
15229;BME280;7717;47.792;12.076;2024-01-30T03:27:41;97584.13;;;-5.15;100.00
15229;BME280;7717;47.792;12.076;2024-01-30T03:30:07;97573.47;;;-5.02;100.00
15229;BME280;7717;47.792;12.076;2024-01-30T03:32:33;97508.56;;;-5.44;100.00
15229;BME280;7717;47.792;12.076;2024-01-30T03:34:59;97568.97;;;-4.95;100.00
15229;BME280;7717;47.792;12.076;2024-01-30T03:37:24;97572.56;;;-5.01;100.00
15229;BME280;7717;47.792;12.076;2024-01-30T03:39:50;97567.38;;;-4.99;100.00
15229;BME280;7717;47.792;12.076;2024-01-30T03:42:16;97564.03;;;-5.03;100.00
15229;BME280;7717;47.792;12.076;2024-01-30T03:44:41;97587.81;;;-4.93;100.00
15229;BME280;7717;47.792;12.076;2024-01-30T03:47:06;97584.50;;;-4.98;100.00
15229;BME280;7717;47.792;12.076;2024-01-30T03:49:32;97506.22;;;-5.51;100.00
15229;BME280;7717;47.792;12.076;2024-01-30T03:51:57;97585.91;;;-4.87;100.00
15229;BME280;7717;47.792;12.076;2024-01-30T03:54:22;97577.59;;;-4.96;100.00
15229;BME280;7717;47.792;12.076;2024-01-30T03:56:48;97584.19;;;-4.86;100.00
15229;BME280;7717;47.792;12.076;2024-01-30T03:59:13;97579.81;;;-4.84;100.00
15229;BME280;7717;47.792;12.076;2024-01-30T04:01:39;97526.88;;;-5.24;100.00
15229;BME280;7717;47.792;12.076;2024-01-30T04:04:04;97577.56;;;-4.95;100.00
15229;BME280;7717;47.792;12.076;2024-01-30T04:06:29;97570.03;;;-5.02;100.00
15229;BME280;7717;47.792;12.076;2024-01-30T04:08:55;97553.22;;;-5.14;100.00
15229;BME280;7717;47.792;12.076;2024-01-30T04:11:20;97579.91;;;-4.87;100.00
15229;BME280;7717;47.792;12.076;2024-01-30T04:13:45;97582.84;;;-4.99;100.00
15229;BME280;7717;47.792;12.076;2024-01-30T04:16:25;97593.72;;;-5.22;100.00
15229;BME280;7717;47.792;12.076;2024-01-30T04:18:52;97580.84;;;-5.21;100.00
15229;BME280;7717;47.792;12.076;2024-01-30T04:21:17;97507.38;;;-5.63;100.00
15229;BME280;7717;47.792;12.076;2024-01-30T04:23:43;97590.81;;;-5.10;100.00
15229;BME280;7717;47.792;12.076;2024-01-30T04:26:09;97574.84;;;-5.21;100.00
15229;BME280;7717;47.792;12.076;2024-01-30T04:28:34;97576.50;;;-5.18;100.00
15229;BME280;7717;47.792;12.076;2024-01-30T04:30:59;97583.81;;;-5.36;100.00
15229;BME280;7717;47.792;12.076;2024-01-30T04:33:25;97585.81;;;-5.14;100.00
15229;BME280;7717;47.792;12.076;2024-01-30T04:35:50;97578.22;;;-5.19;100.00
15229;BME280;7717;47.792;12.076;2024-01-30T04:38:17;97589.38;;;-5.18;100.00
15229;BME280;7717;47.792;12.076;2024-01-30T04:40:42;97587.00;;;-5.26;100.00
15229;BME280;7717;47.792;12.076;2024-01-30T04:43:07;97551.53;;;-5.46;100.00
15229;BME280;7717;47.792;12.076;2024-01-30T04:45:33;97563.75;;;-5.23;100.00
15229;BME280;7717;47.792;12.076;2024-01-30T04:47:59;97572.34;;;-5.24;100.00
15229;BME280;7717;47.792;12.076;2024-01-30T04:50:24;97583.22;;;-5.13;100.00
15229;BME280;7717;47.792;12.076;2024-01-30T04:52:52;97587.00;;;-5.26;100.00
15229;BME280;7717;47.792;12.076;2024-01-30T04:55:17;97570.94;;;-5.36;100.00
15229;BME280;7717;47.792;12.076;2024-01-30T04:57:42;97591.28;;;-5.27;100.00
15229;BME280;7717;47.792;12.076;2024-01-30T05:00:08;97544.84;;;-5.53;100.00
15229;BME280;7717;47.792;12.076;2024-01-30T05:02:34;97579.06;;;-5.51;100.00
15229;BME280;7717;47.792;12.076;2024-01-30T05:05:00;97537.28;;;-5.59;100.00
15229;BME280;7717;47.792;12.076;2024-01-30T05:07:25;97567.16;;;-5.53;100.00
15229;BME280;7717;47.792;12.076;2024-01-30T05:09:51;97576.75;;;-5.28;100.00
15229;BME280;7717;47.792;12.076;2024-01-30T05:12:17;97585.00;;;-5.16;100.00
15229;BME280;7717;47.792;12.076;2024-01-30T05:14:43;97580.13;;;-5.26;100.00
15229;BME280;7717;47.792;12.076;2024-01-30T05:17:08;97605.19;;;-5.01;100.00
15229;BME280;7717;47.792;12.076;2024-01-30T05:19:35;97565.56;;;-5.27;100.00
15229;BME280;7717;47.792;12.076;2024-01-30T05:22:01;97597.44;;;-5.00;100.00
15229;BME280;7717;47.792;12.076;2024-01-30T05:24:27;97601.72;;;-5.00;100.00
15229;BME280;7717;47.792;12.076;2024-01-30T05:26:52;97598.59;;;-5.11;100.00
15229;BME280;7717;47.792;12.076;2024-01-30T05:29:18;97584.44;;;-5.26;100.00
15229;BME280;7717;47.792;12.076;2024-01-30T05:31:43;97602.13;;;-5.15;100.00
15229;BME280;7717;47.792;12.076;2024-01-30T05:34:09;97584.63;;;-5.34;100.00
15229;BME280;7717;47.792;12.076;2024-01-30T05:36:34;97605.69;;;-5.19;100.00
15229;BME280;7717;47.792;12.076;2024-01-30T05:39:00;97605.06;;;-5.29;100.00
15229;BME280;7717;47.792;12.076;2024-01-30T05:41:26;97600.31;;;-5.44;100.00
15229;BME280;7717;47.792;12.076;2024-01-30T05:43:52;97602.84;;;-5.43;100.00
15229;BME280;7717;47.792;12.076;2024-01-30T05:46:17;97604.47;;;-5.39;100.00
15229;BME280;7717;47.792;12.076;2024-01-30T05:48:43;97610.25;;;-5.31;100.00
15229;BME280;7717;47.792;12.076;2024-01-30T05:51:08;97606.38;;;-5.45;100.00
15229;BME280;7717;47.792;12.076;2024-01-30T05:53:34;97613.75;;;-5.33;100.00
15229;BME280;7717;47.792;12.076;2024-01-30T05:56:03;97603.41;;;-5.32;100.00
15229;BME280;7717;47.792;12.076;2024-01-30T05:58:29;97602.31;;;-5.22;100.00
15229;BME280;7717;47.792;12.076;2024-01-30T06:00:54;97603.00;;;-5.16;100.00
15229;BME280;7717;47.792;12.076;2024-01-30T06:03:20;97606.22;;;-5.39;100.00
15229;BME280;7717;47.792;12.076;2024-01-30T06:05:45;97608.63;;;-5.33;100.00
15229;BME280;7717;47.792;12.076;2024-01-30T06:08:10;97602.88;;;-5.44;100.00
15229;BME280;7717;47.792;12.076;2024-01-30T06:10:36;97602.34;;;-5.23;100.00
15229;BME280;7717;47.792;12.076;2024-01-30T06:13:03;97595.47;;;-5.23;100.00
15229;BME280;7717;47.792;12.076;2024-01-30T06:15:29;97598.88;;;-5.22;100.00
15229;BME280;7717;47.792;12.076;2024-01-30T06:17:58;97605.06;;;-5.29;100.00
15229;BME280;7717;47.792;12.076;2024-01-30T06:20:23;97598.53;;;-5.41;100.00
15229;BME280;7717;47.792;12.076;2024-01-30T06:22:49;97606.16;;;-5.38;100.00
15229;BME280;7717;47.792;12.076;2024-01-30T06:25:14;97599.34;;;-5.39;100.00
15229;BME280;7717;47.792;12.076;2024-01-30T06:27:39;97609.31;;;-5.27;100.00
15229;BME280;7717;47.792;12.076;2024-01-30T06:30:08;97604.81;;;-5.18;100.00
15229;BME280;7717;47.792;12.076;2024-01-30T06:32:35;97606.47;;;-5.17;100.00
15229;BME280;7717;47.792;12.076;2024-01-30T06:35:01;97612.47;;;-5.17;100.00
15229;BME280;7717;47.792;12.076;2024-01-30T06:37:27;97600.59;;;-5.23;100.00
15229;BME280;7717;47.792;12.076;2024-01-30T06:39:52;97616.72;;;-5.16;100.00
15229;BME280;7717;47.792;12.076;2024-01-30T06:42:18;97619.91;;;-5.06;100.00
15229;BME280;7717;47.792;12.076;2024-01-30T06:44:43;97615.25;;;-4.92;100.00
15229;BME280;7717;47.792;12.076;2024-01-30T06:47:09;97614.50;;;-4.97;100.00
15229;BME280;7717;47.792;12.076;2024-01-30T06:49:34;97623.31;;;-4.75;100.00
15229;BME280;7717;47.792;12.076;2024-01-30T06:52:00;97623.56;;;-4.84;100.00
15229;BME280;7717;47.792;12.076;2024-01-30T06:54:25;97623.56;;;-4.84;100.00
15229;BME280;7717;47.792;12.076;2024-01-30T06:56:50;97625.66;;;-4.98;100.00
15229;BME280;7717;47.792;12.076;2024-01-30T06:59:16;97628.19;;;-4.95;100.00
15229;BME280;7717;47.792;12.076;2024-01-30T07:01:41;97634.00;;;-4.89;100.00
15229;BME280;7717;47.792;12.076;2024-01-30T07:04:07;97638.34;;;-4.91;100.00
15229;BME280;7717;47.792;12.076;2024-01-30T07:06:33;97634.50;;;-4.76;100.00
15229;BME280;7717;47.792;12.076;2024-01-30T07:08:58;97583.16;;;-5.11;100.00
15229;BME280;7717;47.792;12.076;2024-01-30T07:11:23;97631.34;;;-4.55;100.00
15229;BME280;7717;47.792;12.076;2024-01-30T07:13:52;97636.47;;;-4.55;100.00
15229;BME280;7717;47.792;12.076;2024-01-30T07:16:17;97637.47;;;-4.59;100.00
15229;BME280;7717;47.792;12.076;2024-01-30T07:18:43;97640.38;;;-4.71;100.00
15229;BME280;7717;47.792;12.076;2024-01-30T07:21:11;97650.59;;;-4.68;100.00
15229;BME280;7717;47.792;12.076;2024-01-30T07:23:37;97641.22;;;-4.70;100.00
15229;BME280;7717;47.792;12.076;2024-01-30T07:26:07;97643.78;;;-4.70;100.00
15229;BME280;7717;47.792;12.076;2024-01-30T07:28:34;97645.28;;;-4.62;100.00
15229;BME280;7717;47.792;12.076;2024-01-30T07:31:00;97649.00;;;-4.43;100.00
15229;BME280;7717;47.792;12.076;2024-01-30T07:33:25;97646.03;;;-4.29;100.00
15229;BME280;7717;47.792;12.076;2024-01-30T07:35:52;97614.53;;;-4.38;100.00
15229;BME280;7717;47.792;12.076;2024-01-30T07:38:18;97651.91;;;-4.25;100.00
15229;BME280;7717;47.792;12.076;2024-01-30T07:40:44;97589.94;;;-4.49;100.00
15229;BME280;7717;47.792;12.076;2024-01-30T07:43:09;97645.06;;;-3.97;100.00
15229;BME280;7717;47.792;12.076;2024-01-30T07:45:35;97626.88;;;-3.92;100.00
15229;BME280;7717;47.792;12.076;2024-01-30T07:48:00;97638.66;;;-3.85;100.00
15229;BME280;7717;47.792;12.076;2024-01-30T07:50:26;97643.41;;;-3.72;100.00
15229;BME280;7717;47.792;12.076;2024-01-30T07:52:56;97643.47;;;-3.47;100.00
15229;BME280;7717;47.792;12.076;2024-01-30T07:55:21;97607.53;;;-3.27;100.00
15229;BME280;7717;47.792;12.076;2024-01-30T07:57:51;97640.69;;;-2.66;100.00
15229;BME280;7717;47.792;12.076;2024-01-30T08:00:18;97634.28;;;-2.79;100.00
15229;BME280;7717;47.792;12.076;2024-01-30T08:02:46;97639.91;;;-2.68;100.00
15229;BME280;7717;47.792;12.076;2024-01-30T08:05:12;97636.81;;;-2.55;100.00
15229;BME280;7717;47.792;12.076;2024-01-30T08:07:39;97635.44;;;-2.40;100.00
15229;BME280;7717;47.792;12.076;2024-01-30T08:10:05;97637.59;;;-2.29;100.00
15229;BME280;7717;47.792;12.076;2024-01-30T08:12:31;97640.28;;;-2.09;100.00
15229;BME280;7717;47.792;12.076;2024-01-30T08:14:57;97640.81;;;-1.79;100.00
15229;BME280;7717;47.792;12.076;2024-01-30T08:17:22;97637.78;;;-1.67;100.00
15229;BME280;7717;47.792;12.076;2024-01-30T08:19:48;97640.13;;;-1.61;100.00
15229;BME280;7717;47.792;12.076;2024-01-30T08:22:13;97642.16;;;-1.47;100.00
15229;BME280;7717;47.792;12.076;2024-01-30T08:24:39;97606.09;;;-1.52;100.00
15229;BME280;7717;47.792;12.076;2024-01-30T08:27:06;97649.75;;;-1.23;100.00
15229;BME280;7717;47.792;12.076;2024-01-30T08:29:31;97638.81;;;-1.09;100.00
15229;BME280;7717;47.792;12.076;2024-01-30T08:31:57;97635.59;;;-0.94;100.00
15229;BME280;7717;47.792;12.076;2024-01-30T08:34:25;97637.03;;;-0.87;100.00
15229;BME280;7717;47.792;12.076;2024-01-30T08:36:50;97641.53;;;-0.71;100.00
15229;BME280;7717;47.792;12.076;2024-01-30T08:39:16;97643.31;;;-0.53;100.00
15229;BME280;7717;47.792;12.076;2024-01-30T08:41:42;97649.56;;;-0.38;100.00
15229;BME280;7717;47.792;12.076;2024-01-30T08:44:07;97641.88;;;-0.21;100.00
15229;BME280;7717;47.792;12.076;2024-01-30T08:46:33;97643.00;;;-0.08;100.00
15229;BME280;7717;47.792;12.076;2024-01-30T08:48:59;97649.31;;;0.05;100.00
15229;BME280;7717;47.792;12.076;2024-01-30T08:51:25;97647.00;;;0.18;100.00
15229;BME280;7717;47.792;12.076;2024-01-30T08:53:50;97642.53;;;0.38;100.00
15229;BME280;7717;47.792;12.076;2024-01-30T08:56:16;97641.59;;;0.58;99.59
15229;BME280;7717;47.792;12.076;2024-01-30T08:58:42;97626.38;;;0.68;99.65
15229;BME280;7717;47.792;12.076;2024-01-30T09:01:07;97625.50;;;0.86;99.65
15229;BME280;7717;47.792;12.076;2024-01-30T09:03:32;97627.22;;;1.03;98.90
15229;BME280;7717;47.792;12.076;2024-01-30T09:05:58;97635.53;;;1.27;98.38
15229;BME280;7717;47.792;12.076;2024-01-30T09:08:23;97634.75;;;1.75;100.00
15229;BME280;7717;47.792;12.076;2024-01-30T09:10:48;97622.44;;;2.10;98.45
15229;BME280;7717;47.792;12.076;2024-01-30T09:13:15;97624.94;;;2.27;95.69
15229;BME280;7717;47.792;12.076;2024-01-30T09:15:42;97636.00;;;2.46;93.43
15229;BME280;7717;47.792;12.076;2024-01-30T09:18:07;97632.66;;;2.90;94.26
15229;BME280;7717;47.792;12.076;2024-01-30T09:20:32;97627.81;;;4.39;92.22
15229;BME280;7717;47.792;12.076;2024-01-30T09:22:58;97611.72;;;8.44;79.36
15229;BME280;7717;47.792;12.076;2024-01-30T09:25:24;97601.38;;;10.48;67.65
15229;BME280;7717;47.792;12.076;2024-01-30T09:27:49;97589.97;;;11.63;57.20
15229;BME280;7717;47.792;12.076;2024-01-30T09:30:15;97603.94;;;11.27;56.45
15229;BME280;7717;47.792;12.076;2024-01-30T09:32:40;97606.88;;;12.54;53.81
15229;BME280;7717;47.792;12.076;2024-01-30T09:35:06;97587.53;;;13.93;56.92
15229;BME280;7717;47.792;12.076;2024-01-30T09:37:33;97580.91;;;15.95;53.21
15229;BME280;7717;47.792;12.076;2024-01-30T09:39:58;97583.38;;;16.05;49.63
15229;BME280;7717;47.792;12.076;2024-01-30T09:42:31;97584.03;;;16.07;47.23
15229;BME280;7717;47.792;12.076;2024-01-30T09:44:59;97581.94;;;15.70;55.11
15229;BME280;7717;47.792;12.076;2024-01-30T09:47:24;97574.97;;;16.32;54.32
15229;BME280;7717;47.792;12.076;2024-01-30T09:49:51;97584.28;;;16.98;52.28
15229;BME280;7717;47.792;12.076;2024-01-30T09:52:16;97579.44;;;17.47;51.92
15229;BME280;7717;47.792;12.076;2024-01-30T09:54:52;97583.66;;;17.79;52.34
15229;BME280;7717;47.792;12.076;2024-01-30T09:57:18;97576.63;;;15.05;51.96
15229;BME280;7717;47.792;12.076;2024-01-30T09:59:43;97588.56;;;14.93;50.97
15229;BME280;7717;47.792;12.076;2024-01-30T10:02:12;97577.13;;;15.65;56.66
15229;BME280;7717;47.792;12.076;2024-01-30T10:04:37;97584.34;;;16.20;55.74
15229;BME280;7717;47.792;12.076;2024-01-30T10:07:03;97577.66;;;16.24;55.26
15229;BME280;7717;47.792;12.076;2024-01-30T10:09:32;97582.28;;;16.69;52.69
15229;BME280;7717;47.792;12.076;2024-01-30T10:11:58;97575.97;;;16.70;55.24
15229;BME280;7717;47.792;12.076;2024-01-30T10:14:24;97574.91;;;16.79;47.73
15229;BME280;7717;47.792;12.076;2024-01-30T10:16:50;97567.47;;;16.97;53.31
15229;BME280;7717;47.792;12.076;2024-01-30T10:19:15;97571.09;;;17.27;47.59
15229;BME280;7717;47.792;12.076;2024-01-30T10:21:41;97574.38;;;16.06;51.55
15229;BME280;7717;47.792;12.076;2024-01-30T10:24:06;97575.31;;;15.25;50.09
15229;BME280;7717;47.792;12.076;2024-01-30T10:26:38;97571.56;;;13.60;45.31
15229;BME280;7717;47.792;12.076;2024-01-30T10:29:03;97568.66;;;13.71;56.78
15229;BME280;7717;47.792;12.076;2024-01-30T10:31:37;97567.03;;;13.08;49.01
15229;BME280;7717;47.792;12.076;2024-01-30T10:34:02;97563.44;;;12.64;56.34
15229;BME280;7717;47.792;12.076;2024-01-30T10:36:36;97570.00;;;11.88;48.63
15229;BME280;7717;47.792;12.076;2024-01-30T10:39:05;97563.22;;;11.76;59.62
15229;BME280;7717;47.792;12.076;2024-01-30T10:41:39;97558.69;;;11.96;52.42
15229;BME280;7717;47.792;12.076;2024-01-30T10:44:09;97554.66;;;12.99;57.34
15229;BME280;7717;47.792;12.076;2024-01-30T10:46:36;97548.16;;;12.58;57.82
15229;BME280;7717;47.792;12.076;2024-01-30T10:49:03;97517.16;;;12.68;55.30
15229;BME280;7717;47.792;12.076;2024-01-30T10:51:31;97536.00;;;13.44;57.99
15229;BME280;7717;47.792;12.076;2024-01-30T10:53:58;97530.72;;;13.78;57.31
15229;BME280;7717;47.792;12.076;2024-01-30T10:56:24;97536.13;;;13.95;56.42
15229;BME280;7717;47.792;12.076;2024-01-30T10:58:51;97504.97;;;14.55;53.04
15229;BME280;7717;47.792;12.076;2024-01-30T11:01:22;97516.72;;;15.82;50.34
15229;BME280;7717;47.792;12.076;2024-01-30T11:03:55;97520.69;;;16.64;42.60
15229;BME280;7717;47.792;12.076;2024-01-30T11:06:25;97513.56;;;18.06;41.75
15229;BME280;7717;47.792;12.076;2024-01-30T11:09:04;97470.25;;;18.83;33.92
15229;BME280;7717;47.792;12.076;2024-01-30T11:14:14;97510.19;;;19.27;46.64
15229;BME280;7717;47.792;12.076;2024-01-30T11:16:40;97501.94;;;19.00;46.17
15229;BME280;7717;47.792;12.076;2024-01-30T11:19:10;97509.44;;;18.90;40.97
15229;BME280;7717;47.792;12.076;2024-01-30T11:21:41;97494.66;;;19.99;35.74
15229;BME280;7717;47.792;12.076;2024-01-30T11:24:07;97478.19;;;18.04;49.57
15229;BME280;7717;47.792;12.076;2024-01-30T11:26:33;97486.53;;;18.31;48.79
15229;BME280;7717;47.792;12.076;2024-01-30T11:29:03;97491.81;;;18.75;36.95
15229;BME280;7717;47.792;12.076;2024-01-30T11:31:30;97470.47;;;17.65;48.54
15229;BME280;7717;47.792;12.076;2024-01-30T11:33:56;97495.34;;;16.91;46.40
15229;BME280;7717;47.792;12.076;2024-01-30T11:36:25;97490.38;;;15.95;42.37
15229;BME280;7717;47.792;12.076;2024-01-30T11:38:52;97464.28;;;16.21;41.78
15229;BME280;7717;47.792;12.076;2024-01-30T11:41:18;97486.78;;;16.95;47.43
15229;BME280;7717;47.792;12.076;2024-01-30T11:43:52;97387.09;;;16.96;36.06
15229;BME280;7717;47.792;12.076;2024-01-30T11:46:17;97475.75;;;17.73;39.56
15229;BME280;7717;47.792;12.076;2024-01-30T11:48:43;97478.41;;;17.88;43.70
15229;BME280;7717;47.792;12.076;2024-01-30T11:51:08;97476.44;;;16.78;40.42
15229;BME280;7717;47.792;12.076;2024-01-30T11:53:34;97473.88;;;16.30;38.19
15229;BME280;7717;47.792;12.076;2024-01-30T11:55:59;97464.84;;;17.60;48.33
15229;BME280;7717;47.792;12.076;2024-01-30T11:58:25;97462.88;;;18.27;44.47
15229;BME280;7717;47.792;12.076;2024-01-30T12:00:55;97455.97;;;19.18;37.56
15229;BME280;7717;47.792;12.076;2024-01-30T12:03:21;97447.94;;;19.18;45.75
15229;BME280;7717;47.792;12.076;2024-01-30T12:05:55;97455.66;;;19.97;31.66
15229;BME280;7717;47.792;12.076;2024-01-30T12:08:20;97445.19;;;19.12;38.89
15229;BME280;7717;47.792;12.076;2024-01-30T12:10:45;97456.25;;;18.81;38.03
15229;BME280;7717;47.792;12.076;2024-01-30T12:13:11;97448.41;;;19.28;43.04
15229;BME280;7717;47.792;12.076;2024-01-30T12:15:41;97433.56;;;19.26;44.80
15229;BME280;7717;47.792;12.076;2024-01-30T12:18:07;97431.88;;;19.80;44.58
15229;BME280;7717;47.792;12.076;2024-01-30T12:20:32;97430.50;;;19.29;40.85
15229;BME280;7717;47.792;12.076;2024-01-30T12:22:58;97434.31;;;19.13;43.33
15229;BME280;7717;47.792;12.076;2024-01-30T12:25:24;97431.53;;;19.56;42.58
15229;BME280;7717;47.792;12.076;2024-01-30T12:27:50;97422.47;;;20.52;44.56
15229;BME280;7717;47.792;12.076;2024-01-30T12:30:17;97428.25;;;20.01;39.50
15229;BME280;7717;47.792;12.076;2024-01-30T12:32:47;97420.50;;;20.19;33.46
15229;BME280;7717;47.792;12.076;2024-01-30T12:35:20;97421.91;;;19.33;30.62
15229;BME280;7717;47.792;12.076;2024-01-30T12:37:46;97419.00;;;20.04;39.20
15229;BME280;7717;47.792;12.076;2024-01-30T12:40:13;97420.84;;;20.77;42.71
15229;BME280;7717;47.792;12.076;2024-01-30T12:42:40;97418.81;;;20.12;39.05
15229;BME280;7717;47.792;12.076;2024-01-30T12:45:08;97414.91;;;19.67;44.53
15229;BME280;7717;47.792;12.076;2024-01-30T12:47:34;97379.19;;;18.27;39.64
15229;BME280;7717;47.792;12.076;2024-01-30T12:49:59;97412.22;;;18.41;47.67